sensor_id;sensor_type;location;lat;lon;timestamp;P1;durP1;ratioP1;P2;durP2;ratioP2
66761;SDS011;53672;48.176;16.338;2023-05-07T00:03:09;6.07;;;2.58;;
66761;SDS011;53672;48.176;16.338;2023-05-07T00:08:11;5.32;;;2.42;;
66761;SDS011;53672;48.176;16.338;2023-05-07T00:13:11;5.90;;;2.83;;
66761;SDS011;53672;48.176;16.338;2023-05-07T00:18:12;5.07;;;2.50;;
66761;SDS011;53672;48.176;16.338;2023-05-07T00:23:13;5.40;;;2.80;;
66761;SDS011;53672;48.176;16.338;2023-05-07T00:28:13;4.63;;;2.28;;
66761;SDS011;53672;48.176;16.338;2023-05-07T00:33:14;4.32;;;2.33;;
66761;SDS011;53672;48.176;16.338;2023-05-07T00:38:15;4.90;;;2.70;;
66761;SDS011;53672;48.176;16.338;2023-05-07T00:43:16;5.20;;;2.28;;
66761;SDS011;53672;48.176;16.338;2023-05-07T00:48:16;4.50;;;2.47;;
66761;SDS011;53672;48.176;16.338;2023-05-07T00:53:18;4.70;;;2.40;;
66761;SDS011;53672;48.176;16.338;2023-05-07T00:58:18;5.38;;;2.60;;
66761;SDS011;53672;48.176;16.338;2023-05-07T01:03:19;4.72;;;2.40;;
66761;SDS011;53672;48.176;16.338;2023-05-07T01:08:21;5.37;;;2.60;;
66761;SDS011;53672;48.176;16.338;2023-05-07T01:13:22;5.00;;;2.53;;
66761;SDS011;53672;48.176;16.338;2023-05-07T01:18:23;5.50;;;2.40;;
66761;SDS011;53672;48.176;16.338;2023-05-07T01:23:25;4.95;;;2.40;;
66761;SDS011;53672;48.176;16.338;2023-05-07T01:28:25;5.53;;;2.40;;
66761;SDS011;53672;48.176;16.338;2023-05-07T01:33:25;5.93;;;2.28;;
66761;SDS011;53672;48.176;16.338;2023-05-07T01:38:27;4.70;;;2.37;;
66761;SDS011;53672;48.176;16.338;2023-05-07T01:43:28;4.90;;;2.10;;
66761;SDS011;53672;48.176;16.338;2023-05-07T01:48:28;4.93;;;2.60;;
66761;SDS011;53672;48.176;16.338;2023-05-07T01:53:30;5.67;;;2.50;;
66761;SDS011;53672;48.176;16.338;2023-05-07T01:58:35;4.80;;;2.20;;
66761;SDS011;53672;48.176;16.338;2023-05-07T02:03:35;4.80;;;2.50;;
66761;SDS011;53672;48.176;16.338;2023-05-07T02:08:37;4.77;;;2.37;;
66761;SDS011;53672;48.176;16.338;2023-05-07T02:13:37;5.20;;;2.70;;
66761;SDS011;53672;48.176;16.338;2023-05-07T02:18:37;5.70;;;2.45;;
66761;SDS011;53672;48.176;16.338;2023-05-07T02:23:39;5.07;;;2.40;;
66761;SDS011;53672;48.176;16.338;2023-05-07T02:28:39;6.18;;;2.65;;
66761;SDS011;53672;48.176;16.338;2023-05-07T02:33:39;5.35;;;2.40;;
66761;SDS011;53672;48.176;16.338;2023-05-07T02:38:41;5.15;;;2.50;;
66761;SDS011;53672;48.176;16.338;2023-05-07T02:43:41;5.03;;;2.70;;
66761;SDS011;53672;48.176;16.338;2023-05-07T02:48:41;5.85;;;3.10;;
66761;SDS011;53672;48.176;16.338;2023-05-07T02:53:43;5.32;;;2.97;;
66761;SDS011;53672;48.176;16.338;2023-05-07T02:58:43;6.78;;;3.20;;
66761;SDS011;53672;48.176;16.338;2023-05-07T03:03:43;6.70;;;3.30;;
66761;SDS011;53672;48.176;16.338;2023-05-07T03:08:45;5.40;;;3.38;;
66761;SDS011;53672;48.176;16.338;2023-05-07T03:13:45;6.60;;;2.90;;
66761;SDS011;53672;48.176;16.338;2023-05-07T03:18:45;7.63;;;3.70;;
66761;SDS011;53672;48.176;16.338;2023-05-07T03:23:47;7.38;;;3.70;;
66761;SDS011;53672;48.176;16.338;2023-05-07T03:28:47;8.23;;;4.33;;
66761;SDS011;53672;48.176;16.338;2023-05-07T03:33:51;7.63;;;4.38;;
66761;SDS011;53672;48.176;16.338;2023-05-07T03:38:53;9.40;;;4.45;;
66761;SDS011;53672;48.176;16.338;2023-05-07T03:43:53;9.77;;;4.63;;
66761;SDS011;53672;48.176;16.338;2023-05-07T03:48:55;9.00;;;4.70;;
66761;SDS011;53672;48.176;16.338;2023-05-07T03:53:56;9.57;;;5.32;;
66761;SDS011;53672;48.176;16.338;2023-05-07T03:58:56;9.87;;;5.33;;
66761;SDS011;53672;48.176;16.338;2023-05-07T04:03:57;11.48;;;5.43;;
66761;SDS011;53672;48.176;16.338;2023-05-07T04:08:58;10.60;;;5.95;;
66761;SDS011;53672;48.176;16.338;2023-05-07T04:13:58;11.43;;;6.50;;
66761;SDS011;53672;48.176;16.338;2023-05-07T04:18:59;12.23;;;6.38;;
66761;SDS011;53672;48.176;16.338;2023-05-07T04:24:02;11.40;;;6.37;;
66761;SDS011;53672;48.176;16.338;2023-05-07T04:29:02;14.13;;;7.20;;
66761;SDS011;53672;48.176;16.338;2023-05-07T04:34:02;12.95;;;7.03;;
66761;SDS011;53672;48.176;16.338;2023-05-07T04:39:04;14.82;;;7.72;;
66761;SDS011;53672;48.176;16.338;2023-05-07T04:44:04;13.47;;;7.30;;
66761;SDS011;53672;48.176;16.338;2023-05-07T04:49:04;13.90;;;7.82;;
66761;SDS011;53672;48.176;16.338;2023-05-07T04:54:06;14.48;;;7.28;;
66761;SDS011;53672;48.176;16.338;2023-05-07T04:59:06;15.07;;;8.00;;
66761;SDS011;53672;48.176;16.338;2023-05-07T05:04:06;13.93;;;7.57;;
66761;SDS011;53672;48.176;16.338;2023-05-07T05:09:08;15.43;;;8.02;;
66761;SDS011;53672;48.176;16.338;2023-05-07T05:14:08;16.00;;;8.65;;
66761;SDS011;53672;48.176;16.338;2023-05-07T05:19:09;15.55;;;8.32;;
66761;SDS011;53672;48.176;16.338;2023-05-07T05:24:10;19.87;;;10.90;;
66761;SDS011;53672;48.176;16.338;2023-05-07T05:29:11;19.05;;;9.93;;
66761;SDS011;53672;48.176;16.338;2023-05-07T05:34:11;18.43;;;10.30;;
66761;SDS011;53672;48.176;16.338;2023-05-07T05:39:12;20.50;;;11.60;;
66761;SDS011;53672;48.176;16.338;2023-05-07T05:44:13;22.00;;;12.43;;
66761;SDS011;53672;48.176;16.338;2023-05-07T05:49:13;24.57;;;12.80;;
66761;SDS011;53672;48.176;16.338;2023-05-07T05:54:14;25.63;;;14.60;;
66761;SDS011;53672;48.176;16.338;2023-05-07T05:59:15;26.88;;;16.05;;
66761;SDS011;53672;48.176;16.338;2023-05-07T06:04:15;29.20;;;16.45;;
66761;SDS011;53672;48.176;16.338;2023-05-07T06:09:17;29.93;;;16.50;;
66761;SDS011;53672;48.176;16.338;2023-05-07T06:14:17;30.35;;;16.48;;
66761;SDS011;53672;48.176;16.338;2023-05-07T06:19:17;28.43;;;16.13;;
66761;SDS011;53672;48.176;16.338;2023-05-07T06:24:19;26.80;;;15.25;;
66761;SDS011;53672;48.176;16.338;2023-05-07T06:29:19;28.58;;;16.25;;
66761;SDS011;53672;48.176;16.338;2023-05-07T06:34:19;27.27;;;15.30;;
66761;SDS011;53672;48.176;16.338;2023-05-07T06:39:21;24.98;;;14.88;;
66761;SDS011;53672;48.176;16.338;2023-05-07T06:44:21;27.33;;;14.37;;
66761;SDS011;53672;48.176;16.338;2023-05-07T06:49:22;25.70;;;15.43;;
66761;SDS011;53672;48.176;16.338;2023-05-07T06:54:23;24.70;;;14.80;;
66761;SDS011;53672;48.176;16.338;2023-05-07T06:59:24;24.85;;;14.30;;
66761;SDS011;53672;48.176;16.338;2023-05-07T07:04:24;23.13;;;14.23;;
66761;SDS011;53672;48.176;16.338;2023-05-07T07:09:26;23.27;;;13.88;;
66761;SDS011;53672;48.176;16.338;2023-05-07T07:14:26;25.17;;;14.43;;
66761;SDS011;53672;48.176;16.338;2023-05-07T07:19:26;22.42;;;14.18;;
66761;SDS011;53672;48.176;16.338;2023-05-07T07:24:28;23.85;;;15.25;;
66761;SDS011;53672;48.176;16.338;2023-05-07T07:29:28;25.60;;;14.88;;
66761;SDS011;53672;48.176;16.338;2023-05-07T07:34:28;22.27;;;13.35;;
66761;SDS011;53672;48.176;16.338;2023-05-07T07:39:30;19.98;;;12.05;;
66761;SDS011;53672;48.176;16.338;2023-05-07T07:44:30;20.27;;;12.63;;
66761;SDS011;53672;48.176;16.338;2023-05-07T07:49:30;20.17;;;12.52;;
66761;SDS011;53672;48.176;16.338;2023-05-07T07:54:32;19.10;;;11.47;;
66761;SDS011;53672;48.176;16.338;2023-05-07T07:59:32;18.95;;;11.57;;
66761;SDS011;53672;48.176;16.338;2023-05-07T08:04:32;19.50;;;11.82;;
66761;SDS011;53672;48.176;16.338;2023-05-07T08:09:34;20.63;;;12.23;;
66761;SDS011;53672;48.176;16.338;2023-05-07T08:14:34;19.73;;;11.60;;
66761;SDS011;53672;48.176;16.338;2023-05-07T08:19:34;21.53;;;12.83;;
66761;SDS011;53672;48.176;16.338;2023-05-07T08:24:36;20.63;;;12.25;;
66761;SDS011;53672;48.176;16.338;2023-05-07T08:29:36;20.30;;;13.07;;
66761;SDS011;53672;48.176;16.338;2023-05-07T08:34:37;20.38;;;12.15;;
66761;SDS011;53672;48.176;16.338;2023-05-07T08:39:38;17.98;;;12.25;;
66761;SDS011;53672;48.176;16.338;2023-05-07T08:44:38;18.93;;;11.67;;
66761;SDS011;53672;48.176;16.338;2023-05-07T08:49:39;17.05;;;11.30;;
66761;SDS011;53672;48.176;16.338;2023-05-07T08:54:41;18.52;;;11.55;;
66761;SDS011;53672;48.176;16.338;2023-05-07T08:59:41;18.90;;;12.43;;
66761;SDS011;53672;48.176;16.338;2023-05-07T09:04:41;16.92;;;10.95;;
66761;SDS011;53672;48.176;16.338;2023-05-07T09:09:44;17.70;;;10.50;;
66761;SDS011;53672;48.176;16.338;2023-05-07T09:14:44;17.73;;;9.33;;
66761;SDS011;53672;48.176;16.338;2023-05-07T09:19:45;15.07;;;9.20;;
66761;SDS011;53672;48.176;16.338;2023-05-07T09:24:48;15.15;;;9.77;;
66761;SDS011;53672;48.176;16.338;2023-05-07T09:29:49;17.08;;;10.88;;
66761;SDS011;53672;48.176;16.338;2023-05-07T09:34:50;16.30;;;11.57;;
66761;SDS011;53672;48.176;16.338;2023-05-07T09:39:51;17.40;;;10.90;;
66761;SDS011;53672;48.176;16.338;2023-05-07T09:44:51;16.48;;;10.52;;
66761;SDS011;53672;48.176;16.338;2023-05-07T09:49:54;16.00;;;10.93;;
66761;SDS011;53672;48.176;16.338;2023-05-07T09:54:57;14.70;;;9.88;;
66761;SDS011;53672;48.176;16.338;2023-05-07T09:59:57;17.60;;;11.30;;
66761;SDS011;53672;48.176;16.338;2023-05-07T10:04:58;14.33;;;9.60;;
66761;SDS011;53672;48.176;16.338;2023-05-07T10:09:59;10.43;;;7.70;;
66761;SDS011;53672;48.176;16.338;2023-05-07T10:15:00;13.25;;;10.23;;
66761;SDS011;53672;48.176;16.338;2023-05-07T10:20:00;13.70;;;10.50;;
66761;SDS011;53672;48.176;16.338;2023-05-07T10:25:03;13.63;;;9.80;;
66761;SDS011;53672;48.176;16.338;2023-05-07T10:30:06;15.00;;;10.83;;
66761;SDS011;53672;48.176;16.338;2023-05-07T10:35:09;12.07;;;9.63;;
66761;SDS011;53672;48.176;16.338;2023-05-07T10:40:12;14.30;;;9.02;;
66761;SDS011;53672;48.176;16.338;2023-05-07T10:45:13;12.30;;;9.65;;
66761;SDS011;53672;48.176;16.338;2023-05-07T10:50:20;13.67;;;9.57;;
66761;SDS011;53672;48.176;16.338;2023-05-07T10:55:23;15.38;;;10.32;;
66761;SDS011;53672;48.176;16.338;2023-05-07T11:00:41;14.27;;;9.38;;
66761;SDS011;53672;48.176;16.338;2023-05-07T11:05:42;11.95;;;9.18;;
66761;SDS011;53672;48.176;16.338;2023-05-07T11:10:50;12.93;;;9.13;;
66761;SDS011;53672;48.176;16.338;2023-05-07T11:15:50;12.40;;;8.32;;
66761;SDS011;53672;48.176;16.338;2023-05-07T11:20:55;12.70;;;8.57;;
66761;SDS011;53672;48.176;16.338;2023-05-07T11:25:59;11.93;;;8.73;;
66761;SDS011;53672;48.176;16.338;2023-05-07T11:30:59;11.20;;;8.40;;
66761;SDS011;53672;48.176;16.338;2023-05-07T11:36:00;11.18;;;8.07;;
66761;SDS011;53672;48.176;16.338;2023-05-07T11:41:02;12.90;;;9.07;;
66761;SDS011;53672;48.176;16.338;2023-05-07T11:46:07;11.83;;;8.10;;
66761;SDS011;53672;48.176;16.338;2023-05-07T11:51:07;10.45;;;7.65;;
66761;SDS011;53672;48.176;16.338;2023-05-07T11:56:10;12.30;;;8.60;;
66761;SDS011;53672;48.176;16.338;2023-05-07T12:01:11;10.87;;;7.70;;
66761;SDS011;53672;48.176;16.338;2023-05-07T12:06:11;11.13;;;7.68;;
66761;SDS011;53672;48.176;16.338;2023-05-07T12:11:18;9.70;;;6.90;;
66761;SDS011;53672;48.176;16.338;2023-05-07T12:16:21;13.07;;;8.50;;
66761;SDS011;53672;48.176;16.338;2023-05-07T12:21:22;10.77;;;7.37;;
66761;SDS011;53672;48.176;16.338;2023-05-07T12:26:24;10.40;;;7.33;;
66761;SDS011;53672;48.176;16.338;2023-05-07T12:31:25;11.30;;;7.60;;
66761;SDS011;53672;48.176;16.338;2023-05-07T12:36:25;10.87;;;6.70;;
66761;SDS011;53672;48.176;16.338;2023-05-07T12:41:27;10.57;;;7.60;;
66761;SDS011;53672;48.176;16.338;2023-05-07T12:46:27;11.27;;;7.55;;
66761;SDS011;53672;48.176;16.338;2023-05-07T12:51:28;11.97;;;8.07;;
66761;SDS011;53672;48.176;16.338;2023-05-07T12:56:31;11.35;;;7.60;;
66761;SDS011;53672;48.176;16.338;2023-05-07T13:01:33;12.05;;;8.10;;
66761;SDS011;53672;48.176;16.338;2023-05-07T13:06:34;12.70;;;8.33;;
66761;SDS011;53672;48.176;16.338;2023-05-07T13:11:35;12.85;;;8.27;;
66761;SDS011;53672;48.176;16.338;2023-05-07T13:16:35;12.82;;;8.10;;
66761;SDS011;53672;48.176;16.338;2023-05-07T13:21:36;11.90;;;7.93;;
66761;SDS011;53672;48.176;16.338;2023-05-07T13:26:37;10.97;;;7.13;;
66761;SDS011;53672;48.176;16.338;2023-05-07T13:31:38;10.05;;;7.05;;
66761;SDS011;53672;48.176;16.338;2023-05-07T13:36:38;11.13;;;8.10;;
66761;SDS011;53672;48.176;16.338;2023-05-07T13:41:39;11.13;;;7.88;;
66761;SDS011;53672;48.176;16.338;2023-05-07T13:46:40;10.25;;;7.05;;
66761;SDS011;53672;48.176;16.338;2023-05-07T13:51:40;11.15;;;7.07;;
66761;SDS011;53672;48.176;16.338;2023-05-07T13:56:41;10.95;;;7.55;;
66761;SDS011;53672;48.176;16.338;2023-05-07T14:01:42;11.32;;;7.15;;
66761;SDS011;53672;48.176;16.338;2023-05-07T14:06:42;17.75;;;6.75;;
66761;SDS011;53672;48.176;16.338;2023-05-07T14:17:48;9.20;;;5.60;;
66761;SDS011;53672;48.176;16.338;2023-05-07T14:27:05;7.60;;;4.80;;
66761;SDS011;53672;48.176;16.338;2023-05-07T14:32:06;6.60;;;4.83;;
66761;SDS011;53672;48.176;16.338;2023-05-07T14:37:06;7.43;;;4.40;;
66761;SDS011;53672;48.176;16.338;2023-05-07T14:42:08;6.28;;;4.60;;
66761;SDS011;53672;48.176;16.338;2023-05-07T14:47:09;6.60;;;4.20;;
66761;SDS011;53672;48.176;16.338;2023-05-07T14:52:09;7.90;;;4.60;;
66761;SDS011;53672;48.176;16.338;2023-05-07T14:57:11;6.27;;;4.90;;
66761;SDS011;53672;48.176;16.338;2023-05-07T15:02:13;5.55;;;4.00;;
66761;SDS011;53672;48.176;16.338;2023-05-07T15:13:53;6.77;;;4.90;;
66761;SDS011;53672;48.176;16.338;2023-05-07T15:18:53;8.68;;;5.72;;
66761;SDS011;53672;48.176;16.338;2023-05-07T15:23:54;6.70;;;4.70;;
66761;SDS011;53672;48.176;16.338;2023-05-07T15:28:55;10.63;;;6.53;;
66761;SDS011;53672;48.176;16.338;2023-05-07T15:33:56;7.88;;;4.82;;
66761;SDS011;53672;48.176;16.338;2023-05-07T15:38:56;6.77;;;4.33;;
66761;SDS011;53672;48.176;16.338;2023-05-07T15:43:58;7.87;;;4.30;;
66761;SDS011;53672;48.176;16.338;2023-05-07T15:48:59;9.18;;;4.25;;
66761;SDS011;53672;48.176;16.338;2023-05-07T15:54:02;6.05;;;3.95;;
66761;SDS011;53672;48.176;16.338;2023-05-07T15:59:04;8.48;;;5.45;;
66761;SDS011;53672;48.176;16.338;2023-05-07T16:04:06;10.03;;;6.07;;
66761;SDS011;53672;48.176;16.338;2023-05-07T16:09:07;8.95;;;4.20;;
66761;SDS011;53672;48.176;16.338;2023-05-07T16:14:09;7.73;;;4.67;;
66761;SDS011;53672;48.176;16.338;2023-05-07T16:19:09;8.75;;;5.30;;
66761;SDS011;53672;48.176;16.338;2023-05-07T16:24:10;7.88;;;4.78;;
66761;SDS011;53672;48.176;16.338;2023-05-07T16:29:12;8.13;;;4.43;;
66761;SDS011;53672;48.176;16.338;2023-05-07T16:34:12;6.80;;;4.70;;
66761;SDS011;53672;48.176;16.338;2023-05-07T16:39:13;8.83;;;4.67;;
66761;SDS011;53672;48.176;16.338;2023-05-07T16:44:15;8.05;;;4.70;;
66761;SDS011;53672;48.176;16.338;2023-05-07T16:49:15;7.32;;;4.45;;
66761;SDS011;53672;48.176;16.338;2023-05-07T16:54:16;9.10;;;5.20;;
66761;SDS011;53672;48.176;16.338;2023-05-07T16:59:18;8.57;;;5.03;;
66761;SDS011;53672;48.176;16.338;2023-05-07T17:04:18;9.73;;;5.47;;
66761;SDS011;53672;48.176;16.338;2023-05-07T17:09:18;8.30;;;5.27;;
66761;SDS011;53672;48.176;16.338;2023-05-07T17:14:20;8.63;;;5.33;;
66761;SDS011;53672;48.176;16.338;2023-05-07T17:19:21;8.57;;;5.53;;
66761;SDS011;53672;48.176;16.338;2023-05-07T17:24:21;12.00;;;5.50;;
66761;SDS011;53672;48.176;16.338;2023-05-07T17:29:23;9.73;;;5.70;;
66761;SDS011;53672;48.176;16.338;2023-05-07T17:34:24;8.27;;;5.15;;
66761;SDS011;53672;48.176;16.338;2023-05-07T17:39:24;8.93;;;5.67;;
66761;SDS011;53672;48.176;16.338;2023-05-07T17:44:26;9.73;;;5.27;;
66761;SDS011;53672;48.176;16.338;2023-05-07T17:49:27;9.20;;;5.40;;
66761;SDS011;53672;48.176;16.338;2023-05-07T17:54:27;8.20;;;5.40;;
66761;SDS011;53672;48.176;16.338;2023-05-07T17:59:29;7.77;;;4.83;;
66761;SDS011;53672;48.176;16.338;2023-05-07T18:04:30;8.73;;;5.32;;
66761;SDS011;53672;48.176;16.338;2023-05-07T18:09:30;8.65;;;4.90;;
66761;SDS011;53672;48.176;16.338;2023-05-07T18:14:32;10.17;;;5.63;;
66761;SDS011;53672;48.176;16.338;2023-05-07T18:19:33;8.70;;;5.57;;
66761;SDS011;53672;48.176;16.338;2023-05-07T18:24:33;8.98;;;5.22;;
66761;SDS011;53672;48.176;16.338;2023-05-07T18:29:35;9.73;;;6.00;;
66761;SDS011;53672;48.176;16.338;2023-05-07T18:34:35;8.83;;;5.10;;
66761;SDS011;53672;48.176;16.338;2023-05-07T18:39:36;10.10;;;5.83;;
66761;SDS011;53672;48.176;16.338;2023-05-07T18:44:38;8.38;;;5.15;;
66761;SDS011;53672;48.176;16.338;2023-05-07T18:49:39;9.70;;;5.77;;
66761;SDS011;53672;48.176;16.338;2023-05-07T18:54:39;10.40;;;5.47;;
66761;SDS011;53672;48.176;16.338;2023-05-07T18:59:41;7.77;;;4.93;;
66761;SDS011;53672;48.176;16.338;2023-05-07T19:04:41;12.32;;;5.18;;
66761;SDS011;53672;48.176;16.338;2023-05-07T19:09:42;10.97;;;5.47;;
66761;SDS011;53672;48.176;16.338;2023-05-07T19:14:44;9.47;;;5.90;;
66761;SDS011;53672;48.176;16.338;2023-05-07T19:19:44;8.88;;;5.68;;
66761;SDS011;53672;48.176;16.338;2023-05-07T19:24:45;10.03;;;5.47;;
66761;SDS011;53672;48.176;16.338;2023-05-07T19:29:46;11.73;;;5.43;;
66761;SDS011;53672;48.176;16.338;2023-05-07T19:34:47;10.95;;;6.13;;
66761;SDS011;53672;48.176;16.338;2023-05-07T19:39:49;13.87;;;7.33;;
66761;SDS011;53672;48.176;16.338;2023-05-07T19:44:53;14.38;;;7.50;;
66761;SDS011;53672;48.176;16.338;2023-05-07T19:49:53;12.33;;;7.17;;
66761;SDS011;53672;48.176;16.338;2023-05-07T19:54:54;14.23;;;7.50;;
66761;SDS011;53672;48.176;16.338;2023-05-07T19:59:56;14.60;;;7.47;;
66761;SDS011;53672;48.176;16.338;2023-05-07T20:04:56;15.98;;;8.25;;
66761;SDS011;53672;48.176;16.338;2023-05-07T20:09:57;15.00;;;8.13;;
66761;SDS011;53672;48.176;16.338;2023-05-07T20:14:59;15.37;;;8.73;;
66761;SDS011;53672;48.176;16.338;2023-05-07T20:19:59;18.58;;;9.68;;
66761;SDS011;53672;48.176;16.338;2023-05-07T20:25:02;20.17;;;10.48;;
66761;SDS011;53672;48.176;16.338;2023-05-07T20:30:05;21.83;;;9.97;;
66761;SDS011;53672;48.176;16.338;2023-05-07T20:35:06;19.58;;;9.50;;
66761;SDS011;53672;48.176;16.338;2023-05-07T20:40:08;20.33;;;10.53;;
66761;SDS011;53672;48.176;16.338;2023-05-07T20:45:10;19.92;;;10.82;;
66761;SDS011;53672;48.176;16.338;2023-05-07T20:50:11;19.75;;;9.48;;
66761;SDS011;53672;48.176;16.338;2023-05-07T20:55:11;20.33;;;10.53;;
66761;SDS011;53672;48.176;16.338;2023-05-07T21:00:14;20.60;;;10.13;;
66761;SDS011;53672;48.176;16.338;2023-05-07T21:05:15;23.07;;;11.03;;
66761;SDS011;53672;48.176;16.338;2023-05-07T21:10:15;21.40;;;10.57;;
66761;SDS011;53672;48.176;16.338;2023-05-07T21:15:17;23.30;;;12.02;;
66761;SDS011;53672;48.176;16.338;2023-05-07T21:20:17;24.27;;;11.33;;
66761;SDS011;53672;48.176;16.338;2023-05-07T21:25:18;23.13;;;12.27;;
66761;SDS011;53672;48.176;16.338;2023-05-07T21:30:20;24.88;;;11.68;;
66761;SDS011;53672;48.176;16.338;2023-05-07T21:35:21;24.30;;;11.23;;
66761;SDS011;53672;48.176;16.338;2023-05-07T21:40:21;26.30;;;11.87;;
66761;SDS011;53672;48.176;16.338;2023-05-07T21:45:23;23.93;;;12.10;;
66761;SDS011;53672;48.176;16.338;2023-05-07T21:50:23;24.58;;;11.52;;
66761;SDS011;53672;48.176;16.338;2023-05-07T21:55:24;22.60;;;11.53;;
66761;SDS011;53672;48.176;16.338;2023-05-07T22:00:26;21.57;;;10.67;;
66761;SDS011;53672;48.176;16.338;2023-05-07T22:05:26;22.52;;;11.73;;
66761;SDS011;53672;48.176;16.338;2023-05-07T22:10:27;23.20;;;12.17;;
66761;SDS011;53672;48.176;16.338;2023-05-07T22:15:28;23.67;;;11.90;;
66761;SDS011;53672;48.176;16.338;2023-05-07T22:20:29;24.10;;;11.88;;
66761;SDS011;53672;48.176;16.338;2023-05-07T22:25:30;23.87;;;12.60;;
66761;SDS011;53672;48.176;16.338;2023-05-07T22:30:33;24.23;;;12.27;;
66761;SDS011;53672;48.176;16.338;2023-05-07T22:35:33;23.77;;;11.38;;
66761;SDS011;53672;48.176;16.338;2023-05-07T22:40:34;20.67;;;10.50;;
66761;SDS011;53672;48.176;16.338;2023-05-07T22:45:35;19.70;;;10.27;;
66761;SDS011;53672;48.176;16.338;2023-05-07T22:50:36;19.58;;;10.15;;
66761;SDS011;53672;48.176;16.338;2023-05-07T22:55:36;18.63;;;10.33;;
66761;SDS011;53672;48.176;16.338;2023-05-07T23:00:38;17.77;;;9.33;;
66761;SDS011;53672;48.176;16.338;2023-05-07T23:05:39;19.63;;;9.60;;
66761;SDS011;53672;48.176;16.338;2023-05-07T23:10:40;17.57;;;8.70;;
66761;SDS011;53672;48.176;16.338;2023-05-07T23:15:41;19.00;;;10.30;;
66761;SDS011;53672;48.176;16.338;2023-05-07T23:20:42;16.93;;;9.20;;
66761;SDS011;53672;48.176;16.338;2023-05-07T23:25:43;18.55;;;9.40;;
66761;SDS011;53672;48.176;16.338;2023-05-07T23:30:45;16.93;;;9.60;;
66761;SDS011;53672;48.176;16.338;2023-05-07T23:35:45;17.83;;;9.10;;
66761;SDS011;53672;48.176;16.338;2023-05-07T23:40:46;15.50;;;8.82;;
66761;SDS011;53672;48.176;16.338;2023-05-07T23:45:48;18.20;;;9.40;;
66761;SDS011;53672;48.176;16.338;2023-05-07T23:50:48;15.97;;;8.87;;
66761;SDS011;53672;48.176;16.338;2023-05-07T23:55:49;16.90;;;8.90;;
